Pagrindinis puslapis
METAR-TAF:

METAR-TAF

Oro uostai :

Dhahran, Saudo Arabija

platuma: 26-16N, ilguma: 050-09E, Aukštis: 26 m

Dabartinis oras

Ataskaita buvo paskelbta 22 minutes, ne 17:00 UTC
Vėjas 9 kt iš Rytų/Šiaurės Rytų
Temperatūra 31°C
Drėgmė 59%
Slėgis 1012 hPa
Matomumas 10 km arba daugiau
nėra debesų žemiau 1500 m ir nėra kamuolinių lietaus debesų

METAR: OEDR 201700Z 07009KT CAVOK 31/22 Q1012 NOSIG

Laikas: 20:22 (17:22 UTC)

Prognozė

Ataskaita buvo paskelbta 8 valandos ir 22 minutes, ne 09:00 UTC
Prognozė galioja nuo 20 metu 12 UTC su 21 metu 18 UTC
Vėjas 8 kt iš Rytų
Matomumas: 8000 m
Tapsmas
nuo 20 metu 20 UTC su 20 metu 22 UTC
Vėjas 4 kt nuo kintamojo kryptimis
Laikinai
nuo 21 metu 02 UTC su 21 metu 05 UTC
Matomumas: 4000 m
rūkana

TAF: OEDR 200900Z 2012/2118 09008KT 8000 NSC BECMG 2020/2022 VRB04KT TEMPO 2102/2105 4000 BR

Orai ataskaitas ir orų prognozės (METAR, TAF).

turimą stotys yra geltonos ir raudonos taškus žemėlapyje.

Perkelti pele per norėdami pamatyti stoties vardą.

Tada spustelėkite, norėdami matyti oro stebėjimo ir prognozės.

Norėdami pakeisti žemėlapį: spustelėkite ant žalios mygtukų su juodo kryžiaus žemyn,; žalią mygtuką su brūkšneliu, jei norite nutolinti; arba žalių rodyklių gretimoms žemėlapius.


METAR-TAF: